Prahovo — YT-2625 — position and weather

sailwx.info

Track history (hours):
 
Tides and Currents Weather Stations Pressure Air Temp Water Temp Dewpoint Dewpoint Depression Visibility Wind Speed Wind Dir Waves Ship Positions

Prahovo

Last reported at 2017-Oct-09 12:21 UTC. Time now 2017-Oct-17 08:14 UTC.
Position N 44°18' E 022°36'.

Length 28 m.

MMSI: 279202625.

Date/timePositionNaut miles runAvg speedWind from/ knotsBaromVisibWave heightAir tempDewpointWater temp
2017-Oct-09 12:21N 44°18' E 022°36'0 0.0
2017-Oct-09 12:01N 44°18' E 022°36'0 0.0
2017-Oct-09 11:31N 44°18' E 022°36'0 0.5
2017-Oct-09 11:01N 44°18' E 022°37'0 0.2
2017-Oct-09 10:31N 44°18' E 022°37'0 0.3
2017-Oct-09 10:01N 44°17' E 022°37'0 0.6
2017-Oct-09 09:30N 44°18' E 022°36'0 0.0
2017-Oct-09 09:00N 44°18' E 022°36'0 0.0
2017-Oct-09 08:31N 44°18' E 022°36'0 0.0
2017-Oct-09 08:01N 44°18' E 022°36'0 0.0
2017-Oct-09 07:31N 44°18' E 022°36'0 0.0
2017-Oct-09 07:01N 44°18' E 022°36'0 0.0
2017-Oct-09 06:31N 44°18' E 022°36'0 0.0
2017-Oct-09 06:01N 44°18' E 022°36'0 0.0
2017-Oct-09 05:31N 44°18' E 022°36'0 0.0
2017-Oct-09 05:01N 44°18' E 022°36'0 0.0
2017-Oct-09 04:31N 44°18' E 022°36'0 0.0
2017-Oct-09 04:01N 44°18' E 022°36'0 0.0
2017-Oct-09 03:31N 44°18' E 022°36'0 0.0
2017-Oct-09 03:01N 44°18' E 022°36'0 0.0
2017-Oct-09 02:31N 44°18' E 022°36'0 0.0
2017-Oct-09 02:01N 44°18' E 022°36'0 0.0
2017-Oct-09 01:31N 44°18' E 022°36'0 0.0
2017-Oct-09 01:00N 44°18' E 022°36'0 0.0
2017-Oct-09 00:31N 44°18' E 022°36'0 0.0
2017-Oct-09 00:01N 44°18' E 022°36'0 0.0
2017-Oct-08 23:31N 44°18' E 022°36'0 0.0
2017-Oct-08 23:00N 44°18' E 022°36'0 0.0
2017-Oct-08 22:31N 44°18' E 022°36'0 0.4
2017-Oct-08 22:01N 44°18' E 022°37'1 1.1
2017-Oct-08 21:30N 44°18' E 022°37'0 0.9
2017-Oct-08 21:01N 44°17' E 022°38'1 1.1
2017-Oct-08 20:31N 44°17' E 022°39'2 3.0
2017-Oct-08 20:01N 44°18' E 022°37'0 0.3
2017-Oct-08 19:31N 44°17' E 022°37'1 2.8
2017-Oct-08 19:00N 44°17' E 022°39'2 4.6
2017-Oct-08 18:30N 44°16' E 022°41'2 5.0
2017-Oct-08 18:01N 44°13' E 022°40'2 3.9
2017-Oct-08 17:31N 44°12' E 022°43'1 2.5
2017-Oct-08 17:01N 44°12' E 022°44'0 0.1
2017-Oct-08 16:31N 44°12' E 022°44'0 0.1
2017-Oct-08 16:01N 44°12' E 022°44'0 0.0
2017-Oct-08 15:31N 44°12' E 022°44'1 1.3
2017-Oct-08 15:01N 44°12' E 022°43'3 6.1
2017-Oct-08 14:31N 44°15' E 022°41'4 7.1
2017-Oct-08 14:01N 44°18' E 022°38'1 1.5
2017-Oct-08 13:31N 44°17' E 022°37'0 0.1
2017-Oct-08 13:01N 44°18' E 022°37'0 0.1
2017-Oct-08 12:31N 44°18' E 022°37'0 0.2
2017-Oct-08 12:01N 44°18' E 022°37'0 0.6
2017-Oct-08 11:31N 44°18' E 022°36'0 0.0
2017-Oct-08 11:00N 44°18' E 022°36'0 0.0
2017-Oct-08 10:30N 44°18' E 022°36'0 0.0
2017-Oct-08 10:01N 44°18' E 022°36'0 0.0
2017-Oct-08 09:30N 44°18' E 022°36'0 0.7
2017-Oct-08 09:01N 44°17' E 022°37'1 1.2
2017-Oct-08 08:31N 44°17' E 022°38'0 0.5
2017-Oct-08 08:01N 44°18' E 022°37'0 0.8
2017-Oct-08 07:31N 44°17' E 022°37'1 2.1
2017-Oct-08 07:00N 44°17' E 022°38'0 0.3
2017-Oct-08 06:31N 44°18' E 022°38'1 2.3
2017-Oct-08 06:00N 44°18' E 022°37'0 0.6
2017-Oct-08 05:31N 44°18' E 022°36'0 0.0
2017-Oct-08 05:00N 44°18' E 022°36'0 0.0
2017-Oct-08 04:31N 44°18' E 022°36'0 0.0
2017-Oct-08 04:01N 44°18' E 022°36'0 0.0
2017-Oct-08 03:30N 44°18' E 022°36'0 0.0
2017-Oct-08 03:00N 44°18' E 022°36'0 0.0
2017-Oct-08 02:30N 44°18' E 022°36'0 0.0
2017-Oct-08 02:00N 44°18' E 022°36'0 0.0
2017-Oct-08 01:31N 44°18' E 022°36'0 0.0
2017-Oct-08 01:01N 44°18' E 022°36'0 0.0
2017-Oct-08 00:31N 44°18' E 022°36'0 0.0
2017-Oct-08 00:01N 44°18' E 022°36'0 0.0
2017-Oct-07 23:31N 44°18' E 022°36'0 0.0
2017-Oct-07 23:01N 44°18' E 022°36'0 0.0
2017-Oct-07 22:30N 44°18' E 022°36'0 0.0
2017-Oct-07 22:01N 44°18' E 022°36'0 0.0
2017-Oct-07 21:31N 44°18' E 022°36'0 0.0
2017-Oct-07 21:01N 44°18' E 022°36'0 0.0
2017-Oct-07 20:30N 44°18' E 022°36'0 0.0
2017-Oct-07 20:01N 44°18' E 022°36'0 0.0
2017-Oct-07 19:30N 44°18' E 022°36'0 0.0
2017-Oct-07 19:01N 44°18' E 022°36'0 0.0
2017-Oct-07 18:31N 44°18' E 022°36'0 0.0
2017-Oct-07 18:00N 44°18' E 022°36'0 0.0
2017-Oct-07 17:30N 44°18' E 022°36'0 0.0
2017-Oct-07 17:01N 44°18' E 022°36'0 0.0
2017-Oct-07 16:31N 44°18' E 022°36'0 0.0
2017-Oct-07 16:00N 44°18' E 022°36'0 0.0
2017-Oct-07 15:31N 44°18' E 022°36'0 0.0
2017-Oct-07 15:01N 44°18' E 022°36'0 0.0
2017-Oct-07 14:31N 44°18' E 022°36'1 1.3
2017-Oct-07 14:01N 44°17' E 022°37'1 1.7
2017-Oct-07 13:31N 44°17' E 022°38'2 3.0
2017-Oct-07 13:01N 44°18' E 022°36'0 0.0
2017-Oct-07 12:31N 44°18' E 022°36'0 0.0
2017-Oct-07 11:56N 44°18' E 022°36'0 0.0
2017-Oct-07 11:31N 44°18' E 022°36'0 0.6
2017-Oct-07 11:01N 44°18' E 022°37'1 1.5
2017-Oct-07 10:29N 44°18' E 022°38'0 1.0
2017-Oct-07 10:01N 44°18' E 022°37'1 1.1
2017-Oct-07 09:28N 44°18' E 022°36'0 0.0
2017-Oct-07 08:56N 44°18' E 022°36'0 0.0
2017-Oct-07 08:28N 44°18' E 022°36'0 0.0
2017-Oct-07 07:57N 44°18' E 022°36'0 0.0
2017-Oct-07 07:30N 44°18' E 022°36'0 0.0
2017-Oct-07 06:58N 44°18' E 022°36'0 0.0
2017-Oct-07 06:30N 44°18' E 022°36'0 0.0
2017-Oct-07 06:00N 44°18' E 022°36'0 0.0
2017-Oct-07 05:30N 44°18' E 022°36'0 0.0
2017-Oct-07 04:59N 44°18' E 022°36'0 0.0
2017-Oct-07 04:29N 44°18' E 022°36'0 0.0
2017-Oct-07 03:59N 44°18' E 022°36'0 0.0
2017-Oct-07 03:28N 44°18' E 022°36'0 0.0
2017-Oct-07 03:00N 44°18' E 022°36'0 0.0
2017-Oct-07 02:30N 44°18' E 022°36'0 0.0
2017-Oct-07 01:59N 44°18' E 022°36'0 0.0
2017-Oct-07 01:30N 44°18' E 022°36'0 0.0
2017-Oct-07 01:00N 44°18' E 022°36'0 0.0
2017-Oct-07 00:21N 44°18' E 022°36'0 0.0
2017-Oct-06 23:55N 44°18' E 022°36'0 0.0
2017-Oct-06 23:28N 44°18' E 022°36'0 0.0
2017-Oct-06 22:58N 44°18' E 022°36'0 0.0
2017-Oct-06 22:28N 44°18' E 022°36'0 0.0
2017-Oct-06 21:58N 44°18' E 022°36'0 0.0
2017-Oct-06 21:28N 44°18' E 022°36'0 0.0
2017-Oct-06 21:00N 44°18' E 022°36'0 0.0
2017-Oct-06 20:28N 44°18' E 022°36'0 0.0
2017-Oct-06 20:00N 44°18' E 022°36'0 0.0
2017-Oct-06 19:29N 44°18' E 022°36'0 0.0
2017-Oct-06 18:59N 44°18' E 022°36'0 0.0
2017-Oct-06 18:29N 44°18' E 022°36'0 0.0
2017-Oct-06 17:59N 44°18' E 022°36'0 0.0
2017-Oct-06 17:29N 44°18' E 022°36'0 0.0
2017-Oct-06 16:59N 44°18' E 022°36'0 0.0
2017-Oct-06 16:28N 44°18' E 022°36'0 0.0
2017-Oct-06 15:59N 44°18' E 022°36'0 0.0
2017-Oct-06 15:28N 44°18' E 022°36'0 0.0
2017-Oct-06 14:59N 44°18' E 022°36'0 0.0
2017-Oct-06 14:29N 44°18' E 022°36'0 0.0
2017-Oct-06 13:59N 44°18' E 022°36'0 0.0
2017-Oct-06 13:29N 44°18' E 022°36'0 0.0
2017-Oct-06 12:59N 44°18' E 022°36'0 0.0
2017-Oct-06 12:29N 44°18' E 022°36'0 0.0
2017-Oct-06 11:59N 44°18' E 022°36'0 0.0
2017-Oct-06 11:29N 44°18' E 022°36'0 0.0
2017-Oct-06 10:55N 44°18' E 022°36'0 0.0
2017-Oct-06 10:29N 44°18' E 022°36'0 0.0
2017-Oct-06 10:00N 44°18' E 022°36'0 0.4
2017-Oct-06 09:30N 44°18' E 022°37'1 1.7
2017-Oct-06 08:59N 44°17' E 022°38'1 1.8
2017-Oct-06 08:30N 44°17' E 022°39'2 3.2
2017-Oct-06 07:58N 44°18' E 022°37'0 0.0
2017-Oct-06 07:28N 44°18' E 022°37'0 0.5
2017-Oct-06 06:59N 44°18' E 022°36'0 0.0
2017-Oct-06 06:28N 44°18' E 022°36'0 0.0
2017-Oct-06 05:58N 44°18' E 022°36'0 0.0
2017-Oct-06 05:28N 44°18' E 022°36'0 0.0
2017-Oct-06 04:59N 44°18' E 022°36'0 0.0
2017-Oct-06 04:29N 44°18' E 022°36'0 0.0
2017-Oct-06 04:00N 44°18' E 022°36'0 0.0
2017-Oct-06 03:30N 44°18' E 022°36'0 0.0
2017-Oct-06 02:59N 44°18' E 022°36'0 0.0
2017-Oct-06 02:24N 44°18' E 022°36'0 0.0
2017-Oct-06 02:00N 44°18' E 022°36'0 0.0
2017-Oct-06 01:30N 44°18' E 022°36'0 0.0
2017-Oct-06 01:00N 44°18' E 022°36'0 0.0
2017-Oct-06 00:30N 44°18' E 022°36'0 0.0
2017-Oct-06 00:00N 44°18' E 022°36'0 0.0
2017-Oct-05 23:28N 44°18' E 022°36'0 0.0
2017-Oct-05 22:58N 44°18' E 022°36'0 0.0
2017-Oct-05 22:28N 44°18' E 022°36'0 0.0
2017-Oct-05 21:57N 44°18' E 022°36'0 0.0
2017-Oct-05 21:28N 44°18' E 022°36'0 0.0
2017-Oct-05 21:00N 44°18' E 022°36'0 0.0
2017-Oct-05 20:30N 44°18' E 022°36'0 0.0
2017-Oct-05 20:00N 44°18' E 022°36'0 0.0
2017-Oct-05 19:30N 44°18' E 022°36'0 0.0
2017-Oct-05 18:59N 44°18' E 022°36'0 0.0
2017-Oct-05 18:28N 44°18' E 022°36'0 0.0
2017-Oct-05 17:56N 44°18' E 022°36'0 0.0
2017-Oct-05 17:29N 44°18' E 022°36'0 0.0
2017-Oct-05 16:58N 44°18' E 022°36'0 0.0
2017-Oct-05 15:25N 44°18' E 022°36'0 0.0
2017-Oct-05 14:58N 44°18' E 022°36'0 0.0
2017-Oct-05 14:28N 44°18' E 022°36'0 0.0
2017-Oct-05 14:00N 44°18' E 022°36'0 0.0
2017-Oct-05 13:29N 44°18' E 022°36'0 0.0
2017-Oct-05 12:59N 44°18' E 022°36'0 0.0
2017-Oct-05 12:29N 44°18' E 022°36'0 0.0
2017-Oct-05 11:59N 44°18' E 022°36'0 0.0
2017-Oct-05 11:28N 44°18' E 022°36'0 0.0
2017-Oct-05 10:58N 44°18' E 022°36'0 0.0
2017-Oct-05 10:28N 44°18' E 022°36'0 0.0
2017-Oct-05 09:58N 44°18' E 022°36'0 0.0
2017-Oct-05 09:28N 44°18' E 022°36'0 0.0
2017-Oct-05 08:58N 44°18' E 022°36'0 0.0
2017-Oct-05 08:28N 44°18' E 022°36'0 0.0
2017-Oct-05 07:58N 44°18' E 022°36'0 0.0
2017-Oct-05 07:28N 44°18' E 022°36'0 0.0
2017-Oct-05 06:59N 44°18' E 022°36'0 0.0
2017-Oct-05 06:29N 44°18' E 022°36'0 0.0
2017-Oct-05 05:59N 44°18' E 022°36'0 0.0
2017-Oct-05 05:29N 44°18' E 022°36'0 0.0
2017-Oct-05 05:00N 44°18' E 022°36'0 0.0
2017-Oct-05 04:25N 44°18' E 022°36'0 0.0
2017-Oct-05 03:58N 44°18' E 022°36'0 0.0
2017-Oct-05 03:29N 44°18' E 022°36'0 0.0
2017-Oct-05 02:58N 44°18' E 022°36'0 0.0
2017-Oct-05 02:28N 44°18' E 022°36'0 0.0
2017-Oct-05 01:58N 44°18' E 022°36'0 0.0
2017-Oct-05 01:28N 44°18' E 022°36'0 0.0
2017-Oct-05 00:58N 44°18' E 022°36'0 0.0
2017-Oct-05 00:28N 44°18' E 022°36'0 0.0
2017-Oct-04 23:58N 44°18' E 022°36'0 0.0
2017-Oct-04 23:28N 44°18' E 022°36'0 0.0
2017-Oct-04 22:58N 44°18' E 022°36'0 0.0
2017-Oct-04 22:28N 44°18' E 022°36'0 0.0
2017-Oct-04 21:55N 44°18' E 022°36'0 0.0
2017-Oct-04 21:28N 44°18' E 022°36'0 0.0
2017-Oct-04 20:55N 44°18' E 022°36'0 0.0
2017-Oct-04 20:28N 44°18' E 022°36'0 0.4
2017-Oct-04 19:58N 44°17' E 022°37'0 0.0
2017-Oct-04 19:29N 44°17' E 022°37'0 0.0
2017-Oct-04 18:59N 44°17' E 022°37'0 0.0
2017-Oct-04 18:30N 44°17' E 022°37'0 0.0
2017-Oct-04 17:58N 44°17' E 022°37'0 0.0
2017-Oct-04 17:28N 44°17' E 022°37'1 1.0
2017-Oct-04 16:24N 44°17' E 022°38'1 1.4
2017-Oct-04 15:42N 44°18' E 022°37'0 1.4
2017-Oct-04 15:28N 44°18' E 022°36'0 0.0
2017-Oct-04 14:58N 44°18' E 022°36'0 0.0
2017-Oct-04 14:28N 44°18' E 022°36'0 0.0
2017-Oct-04 13:58N 44°18' E 022°36'0 0.0
2017-Oct-04 13:28N 44°18' E 022°36'0 0.0
2017-Oct-04 12:58N 44°18' E 022°36'0 0.0
2017-Oct-04 12:28N 44°18' E 022°36'0 0.0
2017-Oct-04 11:58N 44°18' E 022°36'0 0.0
2017-Oct-04 11:28N 44°18' E 022°36'0 0.0
2017-Oct-04 10:58N 44°18' E 022°36'0 0.0
2017-Oct-04 10:28N 44°18' E 022°36'0 0.0
2017-Oct-04 09:58N 44°18' E 022°36'0 0.0
2017-Oct-04 09:28N 44°18' E 022°36'0 0.0
2017-Oct-04 08:58N 44°18' E 022°36'0 0.0
2017-Oct-04 08:30N 44°18' E 022°36'0 0.0
2017-Oct-04 07:58N 44°18' E 022°36'0 0.0
2017-Oct-04 07:28N 44°18' E 022°36'0 0.0
2017-Oct-04 06:55N 44°18' E 022°36'0 0.0
2017-Oct-04 06:29N 44°18' E 022°36'0 0.0
2017-Oct-04 05:58N 44°18' E 022°36'0 0.0
2017-Oct-04 05:28N 44°18' E 022°36'0 0.0
2017-Oct-04 04:58N 44°18' E 022°36'0 0.0
2017-Oct-04 04:28N 44°18' E 022°36'0 0.0
2017-Oct-04 03:58N 44°18' E 022°36'0 0.0
2017-Oct-04 03:28N 44°18' E 022°36'0 0.0
2017-Oct-04 02:58N 44°18' E 022°36'0 0.0
2017-Oct-04 02:27N 44°18' E 022°36'0 0.0
2017-Oct-04 01:57N 44°18' E 022°36'0 0.0
2017-Oct-04 01:29N 44°18' E 022°36'0 0.0
2017-Oct-04 01:00N 44°18' E 022°36'0 0.0
2017-Oct-04 00:30N 44°18' E 022°36'0 0.0
2017-Oct-04 00:00N 44°18' E 022°36'0 0.0
2017-Oct-03 23:28N 44°18' E 022°36'0 0.0
2017-Oct-03 22:58N 44°18' E 022°36'0 0.0
2017-Oct-03 22:28N 44°18' E 022°36'0 0.0
2017-Oct-03 21:58N 44°18' E 022°36'0 0.0
2017-Oct-03 21:28N 44°18' E 022°36'0 0.0
2017-Oct-03 21:00N 44°18' E 022°36'0 0.0
2017-Oct-03 20:30N 44°18' E 022°36'0 0.0
2017-Oct-03 20:00N 44°18' E 022°36'0 0.0
2017-Oct-03 19:30N 44°18' E 022°36'0 0.0
2017-Oct-03 19:00N 44°18' E 022°36'0 0.0
2017-Oct-03 18:30N 44°18' E 022°36'0 0.0
2017-Oct-03 18:00N 44°18' E 022°36'0 0.0
2017-Oct-03 17:30N 44°18' E 022°36'0 0.0
2017-Oct-03 17:00N 44°18' E 022°36'0 0.0
2017-Oct-03 16:27N 44°18' E 022°36'0 0.0
2017-Oct-03 16:00N 44°18' E 022°36'0 0.0
2017-Oct-03 15:30N 44°18' E 022°36'0 0.0
2017-Oct-03 15:00N 44°18' E 022°36'0 0.0
2017-Oct-03 14:00N 44°18' E 022°36'0 0.0
2017-Oct-03 13:30N 44°18' E 022°36'0 0.0
2017-Oct-03 12:59N 44°18' E 022°36'0 0.0
2017-Oct-03 12:29N 44°18' E 022°36'0 0.0
2017-Oct-03 11:59N 44°18' E 022°36'0 0.0
2017-Oct-03 11:29N 44°18' E 022°36'0 0.0
2017-Oct-03 10:59N 44°18' E 022°36'0 0.0
2017-Oct-03 10:29N 44°18' E 022°36'0 0.0
2017-Oct-03 09:59N 44°18' E 022°36'0 0.0
2017-Oct-03 09:30N 44°18' E 022°36'0 0.0
2017-Oct-03 09:00N 44°18' E 022°36'0 0.0
2017-Oct-03 08:30N 44°18' E 022°36'0 0.0
2017-Oct-03 08:00N 44°18' E 022°36'0 0.0
2017-Oct-03 07:30N 44°18' E 022°36'0 0.0
2017-Oct-03 07:00N 44°18' E 022°36'0 0.0
2017-Oct-03 06:30N 44°18' E 022°36'0 0.0
2017-Oct-03 05:57N 44°18' E 022°36'0 0.0
2017-Oct-03 05:30N 44°18' E 022°36'0 0.0
2017-Oct-03 04:58N 44°18' E 022°36'0 0.0
2017-Oct-03 04:26N 44°18' E 022°36'0 0.0
2017-Oct-03 03:59N 44°18' E 022°36'0 0.0
2017-Oct-03 03:29N 44°18' E 022°36'0 0.0
2017-Oct-03 02:59N 44°18' E 022°36'0 0.0
2017-Oct-03 02:29N 44°18' E 022°36'0 0.0
2017-Oct-03 02:00N 44°18' E 022°36'0 0.0
2017-Oct-03 01:30N 44°18' E 022°36'0 0.0
2017-Oct-03 01:00N 44°18' E 022°36'0 0.0
2017-Oct-03 00:30N 44°18' E 022°36'0 0.0
2017-Oct-03 00:00N 44°18' E 022°36'0 0.0
2017-Oct-02 23:30N 44°18' E 022°36'0 0.0
2017-Oct-02 23:00N 44°18' E 022°36'0 0.0
2017-Oct-02 22:30N 44°18' E 022°36'0 0.0
2017-Oct-02 22:00N 44°18' E 022°36'0 0.0
2017-Oct-02 21:30N 44°18' E 022°36'0 0.0
2017-Oct-02 21:00N 44°18' E 022°36'0 0.0
2017-Oct-02 20:30N 44°18' E 022°36'0 0.0
2017-Oct-02 20:00N 44°18' E 022°36'0 0.0
2017-Oct-02 19:27N 44°18' E 022°36'0 0.0
2017-Oct-02 18:59N 44°18' E 022°36'0 0.0
2017-Oct-02 18:29N 44°18' E 022°36'0 0.0
2017-Oct-02 17:59N 44°18' E 022°36'0 0.0
2017-Oct-02 17:29N 44°18' E 022°36'0 0.0
2017-Oct-02 16:59N 44°18' E 022°36'0 0.0
2017-Oct-02 16:29N 44°18' E 022°36'0 0.0
2017-Oct-02 15:59N 44°18' E 022°36'0 0.0
2017-Oct-02 15:29N 44°18' E 022°36'0 0.0
2017-Oct-02 14:59N 44°18' E 022°36'0 0.0
2017-Oct-02 14:28N 44°18' E 022°36'0 0.0
2017-Oct-02 13:58N 44°18' E 022°36'0 0.0
2017-Oct-02 13:28N 44°18' E 022°36'0 0.0
2017-Oct-02 12:58N 44°18' E 022°36'0 0.0
2017-Oct-02 12:28N 44°18' E 022°36'0 0.0
2017-Oct-02 11:58N 44°18' E 022°36'0 0.0
2017-Oct-02 11:28N 44°18' E 022°36'0 0.0
2017-Oct-02 10:58N 44°18' E 022°36'0 0.0
2017-Oct-02 10:28N 44°18' E 022°36'0 0.0
2017-Oct-02 09:58N 44°18' E 022°36'0 0.0
2017-Oct-02 09:28N 44°18' E 022°36'0 0.0
2017-Oct-02 09:00N 44°18' E 022°36'2 3.4
2017-Oct-02 08:28N 44°17' E 022°39'1 2.4
2017-Oct-02 07:54N 44°18' E 022°37'0 1.2
2017-Oct-02 07:30N 44°18' E 022°36'0 0.0
2017-Oct-02 06:58N 44°18' E 022°36'0 0.0
2017-Oct-02 06:28N 44°18' E 022°36'0 0.0
2017-Oct-02 05:58N 44°18' E 022°36'0 0.0
2017-Oct-02 05:28N 44°18' E 022°36'0 0.0
2017-Oct-02 04:58N 44°18' E 022°36'0 0.0
2017-Oct-02 04:28N 44°18' E 022°36'0 0.0
2017-Oct-02 03:58N 44°18' E 022°36'0 0.0
2017-Oct-02 03:28N 44°18' E 022°36'0 0.0
2017-Oct-02 02:55N 44°18' E 022°36'0 0.0
2017-Oct-02 02:28N 44°18' E 022°36'0 0.0
2017-Oct-02 01:58N 44°18' E 022°36'0 0.0
2017-Oct-02 01:28N 44°18' E 022°36'0 0.0
2017-Oct-02 00:59N 44°18' E 022°36'0 0.0
2017-Oct-02 00:29N 44°18' E 022°36'0 0.0
2017-Oct-01 23:59N 44°18' E 022°36'0 0.0
2017-Oct-01 23:29N 44°18' E 022°36'0 0.0
2017-Oct-01 22:59N 44°18' E 022°36'0 0.0
2017-Oct-01 22:29N 44°18' E 022°36'0 0.0
2017-Oct-01 21:59N 44°18' E 022°36'0 0.0
2017-Oct-01 21:29N 44°18' E 022°36'0 0.0
2017-Oct-01 20:59N 44°18' E 022°36'0 0.0
2017-Oct-01 20:29N 44°18' E 022°36'0 0.0
2017-Oct-01 19:59N 44°18' E 022°36'0 0.0
2017-Oct-01 19:29N 44°18' E 022°36'0 0.0
2017-Oct-01 18:59N 44°18' E 022°36'0 0.0
2017-Oct-01 18:29N 44°18' E 022°36'0 0.0
2017-Oct-01 17:59N 44°18' E 022°36'0 0.0
2017-Oct-01 17:30N 44°18' E 022°36'0 0.0
2017-Oct-01 17:00N 44°18' E 022°36'0 0.0
2017-Oct-01 16:30N 44°18' E 022°36'0 0.0
2017-Oct-01 16:00N 44°18' E 022°36'0 0.0
2017-Oct-01 15:30N 44°18' E 022°36'0 0.0
2017-Oct-01 15:00N 44°18' E 022°36'0 0.0
2017-Oct-01 14:30N 44°18' E 022°36'0 0.0
2017-Oct-01 14:00N 44°18' E 022°36'2 3.2
2017-Oct-01 13:30N 44°17' E 022°39'1 2.0
2017-Oct-01 13:00N 44°18' E 022°37'0 0.9
2017-Oct-01 12:29N 44°18' E 022°37'0 0.2
2017-Oct-01 11:58N 44°18' E 022°37'0 0.3
2017-Oct-01 11:31N 44°18' E 022°37'0 0.2
2017-Oct-01 11:00N 44°18' E 022°36'0 0.0
2017-Oct-01 10:30N 44°18' E 022°36'0 0.7
2017-Oct-01 10:00N 44°17' E 022°37'1 1.9
2017-Oct-01 09:30N 44°17' E 022°38'0 0.0
2017-Oct-01 09:00N 44°17' E 022°38'0 0.4
2017-Oct-01 08:29N 44°17' E 022°39'1 2.3
2017-Oct-01 07:55N 44°17' E 022°37'0 0.7
2017-Oct-01 07:29N 44°18' E 022°36'0 0.0
2017-Oct-01 06:59N 44°18' E 022°36'0 0.0
2017-Oct-01 06:29N 44°18' E 022°36'0 0.0
2017-Oct-01 05:59N 44°18' E 022°36'0 0.0
2017-Oct-01 05:29N 44°18' E 022°36'0 0.0
2017-Oct-01 04:58N 44°18' E 022°36'0 0.0
2017-Oct-01 04:30N 44°18' E 022°36'0 0.0
2017-Oct-01 03:59N 44°18' E 022°36'0 0.0
2017-Oct-01 03:29N 44°18' E 022°36'0 0.0
2017-Oct-01 02:59N 44°18' E 022°36'0 0.0
2017-Sep-30 02:00N 44°18' E 022°36'0 0.0
2017-Sep-30 01:30N 44°18' E 022°36'0 0.0
2017-Sep-30 01:01N 44°18' E 022°36'0 0.0
2017-Sep-30 00:29N 44°18' E 022°36'0 0.0
2017-Sep-29 23:59N 44°18' E 022°36'0 0.0
2017-Sep-29 23:29N 44°18' E 022°36'0 0.0
2017-Sep-29 22:59N 44°18' E 022°36'0 0.0
2017-Sep-29 22:29N 44°18' E 022°36'0 0.0
2017-Sep-29 21:59N 44°18' E 022°36'0 0.0
2017-Sep-29 21:29N 44°18' E 022°36'0 0.4
2017-Sep-29 20:58N 44°18' E 022°37'0 0.4
2017-Sep-29 20:30N 44°18' E 022°36'0 0.0
2017-Sep-29 20:00N 44°18' E 022°36'0 0.0
2017-Sep-29 19:30N 44°18' E 022°36'0 0.2
2017-Sep-29 18:58N 44°18' E 022°37'1 2.1
2017-Sep-29 18:30N 44°17' E 022°38'0 0.9
2017-Sep-29 18:00N 44°17' E 022°39'1 2.9
2017-Sep-29 17:30N 44°18' E 022°36'0 0.0
2017-Sep-29 17:00N 44°18' E 022°36'0 0.0
2017-Sep-29 16:30N 44°18' E 022°36'0 0.0
2017-Sep-29 15:59N 44°18' E 022°36'0 0.0
2017-Sep-29 15:29N 44°18' E 022°36'0 0.0
2017-Sep-29 14:59N 44°18' E 022°36'0 0.0
2017-Sep-29 14:29N 44°18' E 022°36'0 0.0
2017-Sep-29 13:56N 44°18' E 022°36'0 0.0
2017-Sep-29 13:29N 44°18' E 022°36'0 0.1
2017-Sep-29 13:00N 44°18' E 022°36'0 0.1
2017-Sep-29 12:29N 44°18' E 022°36'  
Track history (hours):
 
Tides and Currents Weather Stations Pressure Air Temp Water Temp Dewpoint Dewpoint Depression Visibility Wind Speed Wind Dir Waves Ship Positions

Prahovo

Last reported at 2017-Oct-09 12:21 UTC. Time now 2017-Oct-17 08:14 UTC.
Position N 44°18' E 022°36'.

Length 28 m.

MMSI: 279202625.

Date/timePositionNaut miles runAvg speedWind from/ knotsBaromVisibWave heightAir tempDewpointWater temp
2017-Oct-09 12:21N 44°18' E 022°36'0 0.0
2017-Oct-09 12:01N 44°18' E 022°36'0 0.0
2017-Oct-09 11:31N 44°18' E 022°36'0 0.5
2017-Oct-09 11:01N 44°18' E 022°37'0 0.2
2017-Oct-09 10:31N 44°18' E 022°37'0 0.3
2017-Oct-09 10:01N 44°17' E 022°37'0 0.6
2017-Oct-09 09:30N 44°18' E 022°36'0 0.0
2017-Oct-09 09:00N 44°18' E 022°36'0 0.0
2017-Oct-09 08:31N 44°18' E 022°36'0 0.0
2017-Oct-09 08:01N 44°18' E 022°36'0 0.0
2017-Oct-09 07:31N 44°18' E 022°36'0 0.0
2017-Oct-09 07:01N 44°18' E 022°36'0 0.0
2017-Oct-09 06:31N 44°18' E 022°36'0 0.0
2017-Oct-09 06:01N 44°18' E 022°36'0 0.0
2017-Oct-09 05:31N 44°18' E 022°36'0 0.0
2017-Oct-09 05:01N 44°18' E 022°36'0 0.0
2017-Oct-09 04:31N 44°18' E 022°36'0 0.0
2017-Oct-09 04:01N 44°18' E 022°36'0 0.0
2017-Oct-09 03:31N 44°18' E 022°36'0 0.0
2017-Oct-09 03:01N 44°18' E 022°36'0 0.0
2017-Oct-09 02:31N 44°18' E 022°36'0 0.0
2017-Oct-09 02:01N 44°18' E 022°36'0 0.0
2017-Oct-09 01:31N 44°18' E 022°36'0 0.0
2017-Oct-09 01:00N 44°18' E 022°36'0 0.0
2017-Oct-09 00:31N 44°18' E 022°36'0 0.0
2017-Oct-09 00:01N 44°18' E 022°36'0 0.0
2017-Oct-08 23:31N 44°18' E 022°36'0 0.0
2017-Oct-08 23:00N 44°18' E 022°36'0 0.0
2017-Oct-08 22:31N 44°18' E 022°36'0 0.4
2017-Oct-08 22:01N 44°18' E 022°37'1 1.1
2017-Oct-08 21:30N 44°18' E 022°37'0 0.9
2017-Oct-08 21:01N 44°17' E 022°38'1 1.1
2017-Oct-08 20:31N 44°17' E 022°39'2 3.0
2017-Oct-08 20:01N 44°18' E 022°37'0 0.3
2017-Oct-08 19:31N 44°17' E 022°37'1 2.8
2017-Oct-08 19:00N 44°17' E 022°39'2 4.6
2017-Oct-08 18:30N 44°16' E 022°41'2 5.0
2017-Oct-08 18:01N 44°13' E 022°40'2 3.9
2017-Oct-08 17:31N 44°12' E 022°43'1 2.5
2017-Oct-08 17:01N 44°12' E 022°44'0 0.1
2017-Oct-08 16:31N 44°12' E 022°44'0 0.1
2017-Oct-08 16:01N 44°12' E 022°44'0 0.0
2017-Oct-08 15:31N 44°12' E 022°44'1 1.3
2017-Oct-08 15:01N 44°12' E 022°43'3 6.1
2017-Oct-08 14:31N 44°15' E 022°41'4 7.1
2017-Oct-08 14:01N 44°18' E 022°38'1 1.5
2017-Oct-08 13:31N 44°17' E 022°37'0 0.1
2017-Oct-08 13:01N 44°18' E 022°37'0 0.1
2017-Oct-08 12:31N 44°18' E 022°37'0 0.2
2017-Oct-08 12:01N 44°18' E 022°37'0 0.6
2017-Oct-08 11:31N 44°18' E 022°36'0 0.0
2017-Oct-08 11:00N 44°18' E 022°36'0 0.0
2017-Oct-08 10:30N 44°18' E 022°36'0 0.0
2017-Oct-08 10:01N 44°18' E 022°36'0 0.0
2017-Oct-08 09:30N 44°18' E 022°36'0 0.7
2017-Oct-08 09:01N 44°17' E 022°37'1 1.2
2017-Oct-08 08:31N 44°17' E 022°38'0 0.5
2017-Oct-08 08:01N 44°18' E 022°37'0 0.8
2017-Oct-08 07:31N 44°17' E 022°37'1 2.1
2017-Oct-08 07:00N 44°17' E 022°38'0 0.3
2017-Oct-08 06:31N 44°18' E 022°38'1 2.3
2017-Oct-08 06:00N 44°18' E 022°37'0 0.6
2017-Oct-08 05:31N 44°18' E 022°36'0 0.0
2017-Oct-08 05:00N 44°18' E 022°36'0 0.0
2017-Oct-08 04:31N 44°18' E 022°36'0 0.0
2017-Oct-08 04:01N 44°18' E 022°36'0 0.0
2017-Oct-08 03:30N 44°18' E 022°36'0 0.0
2017-Oct-08 03:00N 44°18' E 022°36'0 0.0
2017-Oct-08 02:30N 44°18' E 022°36'0 0.0
2017-Oct-08 02:00N 44°18' E 022°36'0 0.0
2017-Oct-08 01:31N 44°18' E 022°36'0 0.0
2017-Oct-08 01:01N 44°18' E 022°36'0 0.0
2017-Oct-08 00:31N 44°18' E 022°36'0 0.0
2017-Oct-08 00:01N 44°18' E 022°36'0 0.0
2017-Oct-07 23:31N 44°18' E 022°36'0 0.0
2017-Oct-07 23:01N 44°18' E 022°36'0 0.0
2017-Oct-07 22:30N 44°18' E 022°36'0 0.0
2017-Oct-07 22:01N 44°18' E 022°36'0 0.0
2017-Oct-07 21:31N 44°18' E 022°36'0 0.0
2017-Oct-07 21:01N 44°18' E 022°36'0 0.0
2017-Oct-07 20:30N 44°18' E 022°36'0 0.0
2017-Oct-07 20:01N 44°18' E 022°36'0 0.0
2017-Oct-07 19:30N 44°18' E 022°36'0 0.0
2017-Oct-07 19:01N 44°18' E 022°36'0 0.0
2017-Oct-07 18:31N 44°18' E 022°36'0 0.0
2017-Oct-07 18:00N 44°18' E 022°36'0 0.0
2017-Oct-07 17:30N 44°18' E 022°36'0 0.0
2017-Oct-07 17:01N 44°18' E 022°36'0 0.0
2017-Oct-07 16:31N 44°18' E 022°36'0 0.0
2017-Oct-07 16:00N 44°18' E 022°36'0 0.0
2017-Oct-07 15:31N 44°18' E 022°36'0 0.0
2017-Oct-07 15:01N 44°18' E 022°36'0 0.0
2017-Oct-07 14:31N 44°18' E 022°36'1 1.3
2017-Oct-07 14:01N 44°17' E 022°37'1 1.7
2017-Oct-07 13:31N 44°17' E 022°38'2 3.0
2017-Oct-07 13:01N 44°18' E 022°36'0 0.0
2017-Oct-07 12:31N 44°18' E 022°36'0 0.0
2017-Oct-07 11:56N 44°18' E 022°36'0 0.0
2017-Oct-07 11:31N 44°18' E 022°36'0 0.6
2017-Oct-07 11:01N 44°18' E 022°37'1 1.5
2017-Oct-07 10:29N 44°18' E 022°38'0 1.0
2017-Oct-07 10:01N 44°18' E 022°37'1 1.1
2017-Oct-07 09:28N 44°18' E 022°36'0 0.0
2017-Oct-07 08:56N 44°18' E 022°36'0 0.0
2017-Oct-07 08:28N 44°18' E 022°36'0 0.0
2017-Oct-07 07:57N 44°18' E 022°36'0 0.0
2017-Oct-07 07:30N 44°18' E 022°36'0 0.0
2017-Oct-07 06:58N 44°18' E 022°36'0 0.0
2017-Oct-07 06:30N 44°18' E 022°36'0 0.0
2017-Oct-07 06:00N 44°18' E 022°36'0 0.0
2017-Oct-07 05:30N 44°18' E 022°36'0 0.0
2017-Oct-07 04:59N 44°18' E 022°36'0 0.0
2017-Oct-07 04:29N 44°18' E 022°36'0 0.0
2017-Oct-07 03:59N 44°18' E 022°36'0 0.0
2017-Oct-07 03:28N 44°18' E 022°36'0 0.0
2017-Oct-07 03:00N 44°18' E 022°36'0 0.0
2017-Oct-07 02:30N 44°18' E 022°36'0 0.0
2017-Oct-07 01:59N 44°18' E 022°36'0 0.0
2017-Oct-07 01:30N 44°18' E 022°36'0 0.0
2017-Oct-07 01:00N 44°18' E 022°36'0 0.0
2017-Oct-07 00:21N 44°18' E 022°36'0 0.0
2017-Oct-06 23:55N 44°18' E 022°36'0 0.0
2017-Oct-06 23:28N 44°18' E 022°36'0 0.0
2017-Oct-06 22:58N 44°18' E 022°36'0 0.0
2017-Oct-06 22:28N 44°18' E 022°36'0 0.0
2017-Oct-06 21:58N 44°18' E 022°36'0 0.0
2017-Oct-06 21:28N 44°18' E 022°36'0 0.0
2017-Oct-06 21:00N 44°18' E 022°36'0 0.0
2017-Oct-06 20:28N 44°18' E 022°36'0 0.0
2017-Oct-06 20:00N 44°18' E 022°36'0 0.0
2017-Oct-06 19:29N 44°18' E 022°36'0 0.0
2017-Oct-06 18:59N 44°18' E 022°36'0 0.0
2017-Oct-06 18:29N 44°18' E 022°36'0 0.0
2017-Oct-06 17:59N 44°18' E 022°36'0 0.0
2017-Oct-06 17:29N 44°18' E 022°36'0 0.0
2017-Oct-06 16:59N 44°18' E 022°36'0 0.0
2017-Oct-06 16:28N 44°18' E 022°36'0 0.0
2017-Oct-06 15:59N 44°18' E 022°36'0 0.0
2017-Oct-06 15:28N 44°18' E 022°36'0 0.0
2017-Oct-06 14:59N 44°18' E 022°36'0 0.0
2017-Oct-06 14:29N 44°18' E 022°36'0 0.0
2017-Oct-06 13:59N 44°18' E 022°36'0 0.0
2017-Oct-06 13:29N 44°18' E 022°36'0 0.0
2017-Oct-06 12:59N 44°18' E 022°36'0 0.0
2017-Oct-06 12:29N 44°18' E 022°36'0 0.0
2017-Oct-06 11:59N 44°18' E 022°36'0 0.0
2017-Oct-06 11:29N 44°18' E 022°36'0 0.0
2017-Oct-06 10:55N 44°18' E 022°36'0 0.0
2017-Oct-06 10:29N 44°18' E 022°36'0 0.0
2017-Oct-06 10:00N 44°18' E 022°36'0 0.4
2017-Oct-06 09:30N 44°18' E 022°37'1 1.7
2017-Oct-06 08:59N 44°17' E 022°38'1 1.8
2017-Oct-06 08:30N 44°17' E 022°39'2 3.2
2017-Oct-06 07:58N 44°18' E 022°37'0 0.0
2017-Oct-06 07:28N 44°18' E 022°37'0 0.5
2017-Oct-06 06:59N 44°18' E 022°36'0 0.0
2017-Oct-06 06:28N 44°18' E 022°36'0 0.0
2017-Oct-06 05:58N 44°18' E 022°36'0 0.0
2017-Oct-06 05:28N 44°18' E 022°36'0 0.0
2017-Oct-06 04:59N 44°18' E 022°36'0 0.0
2017-Oct-06 04:29N 44°18' E 022°36'0 0.0
2017-Oct-06 04:00N 44°18' E 022°36'0 0.0
2017-Oct-06 03:30N 44°18' E 022°36'0 0.0
2017-Oct-06 02:59N 44°18' E 022°36'0 0.0
2017-Oct-06 02:24N 44°18' E 022°36'0 0.0
2017-Oct-06 02:00N 44°18' E 022°36'0 0.0
2017-Oct-06 01:30N 44°18' E 022°36'0 0.0
2017-Oct-06 01:00N 44°18' E 022°36'0 0.0
2017-Oct-06 00:30N 44°18' E 022°36'0 0.0
2017-Oct-06 00:00N 44°18' E 022°36'0 0.0
2017-Oct-05 23:28N 44°18' E 022°36'0 0.0
2017-Oct-05 22:58N 44°18' E 022°36'0 0.0
2017-Oct-05 22:28N 44°18' E 022°36'0 0.0
2017-Oct-05 21:57N 44°18' E 022°36'0 0.0
2017-Oct-05 21:28N 44°18' E 022°36'0 0.0
2017-Oct-05 21:00N 44°18' E 022°36'0 0.0
2017-Oct-05 20:30N 44°18' E 022°36'0 0.0
2017-Oct-05 20:00N 44°18' E 022°36'0 0.0
2017-Oct-05 19:30N 44°18' E 022°36'0 0.0
2017-Oct-05 18:59N 44°18' E 022°36'0 0.0
2017-Oct-05 18:28N 44°18' E 022°36'0 0.0
2017-Oct-05 17:56N 44°18' E 022°36'0 0.0
2017-Oct-05 17:29N 44°18' E 022°36'0 0.0
2017-Oct-05 16:58N 44°18' E 022°36'0 0.0
2017-Oct-05 15:25N 44°18' E 022°36'0 0.0
2017-Oct-05 14:58N 44°18' E 022°36'0 0.0
2017-Oct-05 14:28N 44°18' E 022°36'0 0.0
2017-Oct-05 14:00N 44°18' E 022°36'0 0.0
2017-Oct-05 13:29N 44°18' E 022°36'0 0.0
2017-Oct-05 12:59N 44°18' E 022°36'0 0.0
2017-Oct-05 12:29N 44°18' E 022°36'0 0.0
2017-Oct-05 11:59N 44°18' E 022°36'0 0.0
2017-Oct-05 11:28N 44°18' E 022°36'0 0.0
2017-Oct-05 10:58N 44°18' E 022°36'0 0.0
2017-Oct-05 10:28N 44°18' E 022°36'0 0.0
2017-Oct-05 09:58N 44°18' E 022°36'0 0.0
2017-Oct-05 09:28N 44°18' E 022°36'0 0.0
2017-Oct-05 08:58N 44°18' E 022°36'0 0.0
2017-Oct-05 08:28N 44°18' E 022°36'0 0.0
2017-Oct-05 07:58N 44°18' E 022°36'0 0.0
2017-Oct-05 07:28N 44°18' E 022°36'0 0.0
2017-Oct-05 06:59N 44°18' E 022°36'0 0.0
2017-Oct-05 06:29N 44°18' E 022°36'0 0.0
2017-Oct-05 05:59N 44°18' E 022°36'0 0.0
2017-Oct-05 05:29N 44°18' E 022°36'0 0.0
2017-Oct-05 05:00N 44°18' E 022°36'0 0.0
2017-Oct-05 04:25N 44°18' E 022°36'0 0.0
2017-Oct-05 03:58N 44°18' E 022°36'0 0.0
2017-Oct-05 03:29N 44°18' E 022°36'0 0.0
2017-Oct-05 02:58N 44°18' E 022°36'0 0.0
2017-Oct-05 02:28N 44°18' E 022°36'0 0.0
2017-Oct-05 01:58N 44°18' E 022°36'0 0.0
2017-Oct-05 01:28N 44°18' E 022°36'0 0.0
2017-Oct-05 00:58N 44°18' E 022°36'0 0.0
2017-Oct-05 00:28N 44°18' E 022°36'0 0.0
2017-Oct-04 23:58N 44°18' E 022°36'0 0.0
2017-Oct-04 23:28N 44°18' E 022°36'0 0.0
2017-Oct-04 22:58N 44°18' E 022°36'0 0.0
2017-Oct-04 22:28N 44°18' E 022°36'0 0.0
2017-Oct-04 21:55N 44°18' E 022°36'0 0.0
2017-Oct-04 21:28N 44°18' E 022°36'0 0.0
2017-Oct-04 20:55N 44°18' E 022°36'0 0.0
2017-Oct-04 20:28N 44°18' E 022°36'0 0.4
2017-Oct-04 19:58N 44°17' E 022°37'0 0.0
2017-Oct-04 19:29N 44°17' E 022°37'0 0.0
2017-Oct-04 18:59N 44°17' E 022°37'0 0.0
2017-Oct-04 18:30N 44°17' E 022°37'0 0.0
2017-Oct-04 17:58N 44°17' E 022°37'0 0.0
2017-Oct-04 17:28N 44°17' E 022°37'1 1.0
2017-Oct-04 16:24N 44°17' E 022°38'1 1.4
2017-Oct-04 15:42N 44°18' E 022°37'0 1.4
2017-Oct-04 15:28N 44°18' E 022°36'0 0.0
2017-Oct-04 14:58N 44°18' E 022°36'0 0.0
2017-Oct-04 14:28N 44°18' E 022°36'0 0.0
2017-Oct-04 13:58N 44°18' E 022°36'0 0.0
2017-Oct-04 13:28N 44°18' E 022°36'0 0.0
2017-Oct-04 12:58N 44°18' E 022°36'0 0.0
2017-Oct-04 12:28N 44°18' E 022°36'0 0.0
2017-Oct-04 11:58N 44°18' E 022°36'0 0.0
2017-Oct-04 11:28N 44°18' E 022°36'0 0.0
2017-Oct-04 10:58N 44°18' E 022°36'0 0.0
2017-Oct-04 10:28N 44°18' E 022°36'0 0.0
2017-Oct-04 09:58N 44°18' E 022°36'0 0.0
2017-Oct-04 09:28N 44°18' E 022°36'0 0.0
2017-Oct-04 08:58N 44°18' E 022°36'0 0.0
2017-Oct-04 08:30N 44°18' E 022°36'0 0.0
2017-Oct-04 07:58N 44°18' E 022°36'0 0.0
2017-Oct-04 07:28N 44°18' E 022°36'0 0.0
2017-Oct-04 06:55N 44°18' E 022°36'0 0.0
2017-Oct-04 06:29N 44°18' E 022°36'0 0.0
2017-Oct-04 05:58N 44°18' E 022°36'0 0.0
2017-Oct-04 05:28N 44°18' E 022°36'0 0.0
2017-Oct-04 04:58N 44°18' E 022°36'0 0.0
2017-Oct-04 04:28N 44°18' E 022°36'0 0.0
2017-Oct-04 03:58N 44°18' E 022°36'0 0.0
2017-Oct-04 03:28N 44°18' E 022°36'0 0.0
2017-Oct-04 02:58N 44°18' E 022°36'0 0.0
2017-Oct-04 02:27N 44°18' E 022°36'0 0.0
2017-Oct-04 01:57N 44°18' E 022°36'0 0.0
2017-Oct-04 01:29N 44°18' E 022°36'0 0.0
2017-Oct-04 01:00N 44°18' E 022°36'0 0.0
2017-Oct-04 00:30N 44°18' E 022°36'0 0.0
2017-Oct-04 00:00N 44°18' E 022°36'0 0.0
2017-Oct-03 23:28N 44°18' E 022°36'0 0.0
2017-Oct-03 22:58N 44°18' E 022°36'0 0.0
2017-Oct-03 22:28N 44°18' E 022°36'0 0.0
2017-Oct-03 21:58N 44°18' E 022°36'0 0.0
2017-Oct-03 21:28N 44°18' E 022°36'0 0.0
2017-Oct-03 21:00N 44°18' E 022°36'0 0.0
2017-Oct-03 20:30N 44°18' E 022°36'0 0.0
2017-Oct-03 20:00N 44°18' E 022°36'0 0.0
2017-Oct-03 19:30N 44°18' E 022°36'0 0.0
2017-Oct-03 19:00N 44°18' E 022°36'0 0.0
2017-Oct-03 18:30N 44°18' E 022°36'0 0.0
2017-Oct-03 18:00N 44°18' E 022°36'0 0.0
2017-Oct-03 17:30N 44°18' E 022°36'0 0.0
2017-Oct-03 17:00N 44°18' E 022°36'0 0.0
2017-Oct-03 16:27N 44°18' E 022°36'0 0.0
2017-Oct-03 16:00N 44°18' E 022°36'0 0.0
2017-Oct-03 15:30N 44°18' E 022°36'0 0.0
2017-Oct-03 15:00N 44°18' E 022°36'0 0.0
2017-Oct-03 14:00N 44°18' E 022°36'0 0.0
2017-Oct-03 13:30N 44°18' E 022°36'0 0.0
2017-Oct-03 12:59N 44°18' E 022°36'0 0.0
2017-Oct-03 12:29N 44°18' E 022°36'0 0.0
2017-Oct-03 11:59N 44°18' E 022°36'0 0.0
2017-Oct-03 11:29N 44°18' E 022°36'0 0.0
2017-Oct-03 10:59N 44°18' E 022°36'0 0.0
2017-Oct-03 10:29N 44°18' E 022°36'0 0.0
2017-Oct-03 09:59N 44°18' E 022°36'0 0.0
2017-Oct-03 09:30N 44°18' E 022°36'0 0.0
2017-Oct-03 09:00N 44°18' E 022°36'0 0.0
2017-Oct-03 08:30N 44°18' E 022°36'0 0.0
2017-Oct-03 08:00N 44°18' E 022°36'0 0.0
2017-Oct-03 07:30N 44°18' E 022°36'0 0.0
2017-Oct-03 07:00N 44°18' E 022°36'0 0.0
2017-Oct-03 06:30N 44°18' E 022°36'0 0.0
2017-Oct-03 05:57N 44°18' E 022°36'0 0.0
2017-Oct-03 05:30N 44°18' E 022°36'0 0.0
2017-Oct-03 04:58N 44°18' E 022°36'0 0.0
2017-Oct-03 04:26N 44°18' E 022°36'0 0.0
2017-Oct-03 03:59N 44°18' E 022°36'0 0.0
2017-Oct-03 03:29N 44°18' E 022°36'0 0.0
2017-Oct-03 02:59N 44°18' E 022°36'0 0.0
2017-Oct-03 02:29N 44°18' E 022°36'0 0.0
2017-Oct-03 02:00N 44°18' E 022°36'0 0.0
2017-Oct-03 01:30N 44°18' E 022°36'0 0.0
2017-Oct-03 01:00N 44°18' E 022°36'0 0.0
2017-Oct-03 00:30N 44°18' E 022°36'0 0.0
2017-Oct-03 00:00N 44°18' E 022°36'0 0.0
2017-Oct-02 23:30N 44°18' E 022°36'0 0.0
2017-Oct-02 23:00N 44°18' E 022°36'0 0.0
2017-Oct-02 22:30N 44°18' E 022°36'0 0.0
2017-Oct-02 22:00N 44°18' E 022°36'0 0.0
2017-Oct-02 21:30N 44°18' E 022°36'0 0.0
2017-Oct-02 21:00N 44°18' E 022°36'0 0.0
2017-Oct-02 20:30N 44°18' E 022°36'0 0.0
2017-Oct-02 20:00N 44°18' E 022°36'0 0.0
2017-Oct-02 19:27N 44°18' E 022°36'0 0.0
2017-Oct-02 18:59N 44°18' E 022°36'0 0.0
2017-Oct-02 18:29N 44°18' E 022°36'0 0.0
2017-Oct-02 17:59N 44°18' E 022°36'0 0.0
2017-Oct-02 17:29N 44°18' E 022°36'0 0.0
2017-Oct-02 16:59N 44°18' E 022°36'0 0.0
2017-Oct-02 16:29N 44°18' E 022°36'0 0.0
2017-Oct-02 15:59N 44°18' E 022°36'0 0.0
2017-Oct-02 15:29N 44°18' E 022°36'0 0.0
2017-Oct-02 14:59N 44°18' E 022°36'0 0.0
2017-Oct-02 14:28N 44°18' E 022°36'0 0.0
2017-Oct-02 13:58N 44°18' E 022°36'0 0.0
2017-Oct-02 13:28N 44°18' E 022°36'0 0.0
2017-Oct-02 12:58N 44°18' E 022°36'0 0.0
2017-Oct-02 12:28N 44°18' E 022°36'0 0.0
2017-Oct-02 11:58N 44°18' E 022°36'0 0.0
2017-Oct-02 11:28N 44°18' E 022°36'0 0.0
2017-Oct-02 10:58N 44°18' E 022°36'0 0.0
2017-Oct-02 10:28N 44°18' E 022°36'0 0.0
2017-Oct-02 09:58N 44°18' E 022°36'0 0.0
2017-Oct-02 09:28N 44°18' E 022°36'0 0.0
2017-Oct-02 09:00N 44°18' E 022°36'2 3.4
2017-Oct-02 08:28N 44°17' E 022°39'1 2.4
2017-Oct-02 07:54N 44°18' E 022°37'0 1.2
2017-Oct-02 07:30N 44°18' E 022°36'0 0.0
2017-Oct-02 06:58N 44°18' E 022°36'0 0.0
2017-Oct-02 06:28N 44°18' E 022°36'0 0.0
2017-Oct-02 05:58N 44°18' E 022°36'0 0.0
2017-Oct-02 05:28N 44°18' E 022°36'0 0.0
2017-Oct-02 04:58N 44°18' E 022°36'0 0.0
2017-Oct-02 04:28N 44°18' E 022°36'0 0.0
2017-Oct-02 03:58N 44°18' E 022°36'0 0.0
2017-Oct-02 03:28N 44°18' E 022°36'0 0.0
2017-Oct-02 02:55N 44°18' E 022°36'0 0.0
2017-Oct-02 02:28N 44°18' E 022°36'0 0.0
2017-Oct-02 01:58N 44°18' E 022°36'0 0.0
2017-Oct-02 01:28N 44°18' E 022°36'0 0.0
2017-Oct-02 00:59N 44°18' E 022°36'0 0.0
2017-Oct-02 00:29N 44°18' E 022°36'0 0.0
2017-Oct-01 23:59N 44°18' E 022°36'0 0.0
2017-Oct-01 23:29N 44°18' E 022°36'0 0.0
2017-Oct-01 22:59N 44°18' E 022°36'0 0.0
2017-Oct-01 22:29N 44°18' E 022°36'0 0.0
2017-Oct-01 21:59N 44°18' E 022°36'0 0.0
2017-Oct-01 21:29N 44°18' E 022°36'0 0.0
2017-Oct-01 20:59N 44°18' E 022°36'0 0.0
2017-Oct-01 20:29N 44°18' E 022°36'0 0.0
2017-Oct-01 19:59N 44°18' E 022°36'0 0.0
2017-Oct-01 19:29N 44°18' E 022°36'0 0.0
2017-Oct-01 18:59N 44°18' E 022°36'0 0.0
2017-Oct-01 18:29N 44°18' E 022°36'0 0.0
2017-Oct-01 17:59N 44°18' E 022°36'0 0.0
2017-Oct-01 17:30N 44°18' E 022°36'0 0.0
2017-Oct-01 17:00N 44°18' E 022°36'0 0.0
2017-Oct-01 16:30N 44°18' E 022°36'0 0.0
2017-Oct-01 16:00N 44°18' E 022°36'0 0.0
2017-Oct-01 15:30N 44°18' E 022°36'0 0.0
2017-Oct-01 15:00N 44°18' E 022°36'0 0.0
2017-Oct-01 14:30N 44°18' E 022°36'0 0.0
2017-Oct-01 14:00N 44°18' E 022°36'2 3.2
2017-Oct-01 13:30N 44°17' E 022°39'1 2.0
2017-Oct-01 13:00N 44°18' E 022°37'0 0.9
2017-Oct-01 12:29N 44°18' E 022°37'0 0.2
2017-Oct-01 11:58N 44°18' E 022°37'0 0.3
2017-Oct-01 11:31N 44°18' E 022°37'0 0.2
2017-Oct-01 11:00N 44°18' E 022°36'0 0.0
2017-Oct-01 10:30N 44°18' E 022°36'0 0.7
2017-Oct-01 10:00N 44°17' E 022°37'1 1.9
2017-Oct-01 09:30N 44°17' E 022°38'0 0.0
2017-Oct-01 09:00N 44°17' E 022°38'0 0.4
2017-Oct-01 08:29N 44°17' E 022°39'1 2.3
2017-Oct-01 07:55N 44°17' E 022°37'0 0.7
2017-Oct-01 07:29N 44°18' E 022°36'0 0.0
2017-Oct-01 06:59N 44°18' E 022°36'0 0.0
2017-Oct-01 06:29N 44°18' E 022°36'0 0.0
2017-Oct-01 05:59N 44°18' E 022°36'0 0.0
2017-Oct-01 05:29N 44°18' E 022°36'0 0.0
2017-Oct-01 04:58N 44°18' E 022°36'0 0.0
2017-Oct-01 04:30N 44°18' E 022°36'0 0.0
2017-Oct-01 03:59N 44°18' E 022°36'0 0.0
2017-Oct-01 03:29N 44°18' E 022°36'0 0.0
2017-Oct-01 02:59N 44°18' E 022°36'0 0.0
2017-Sep-30 02:00N 44°18' E 022°36'0 0.0
2017-Sep-30 01:30N 44°18' E 022°36'0 0.0
2017-Sep-30 01:01N 44°18' E 022°36'0 0.0
2017-Sep-30 00:29N 44°18' E 022°36'0 0.0
2017-Sep-29 23:59N 44°18' E 022°36'0 0.0
2017-Sep-29 23:29N 44°18' E 022°36'0 0.0
2017-Sep-29 22:59N 44°18' E 022°36'0 0.0
2017-Sep-29 22:29N 44°18' E 022°36'0 0.0
2017-Sep-29 21:59N 44°18' E 022°36'0 0.0
2017-Sep-29 21:29N 44°18' E 022°36'0 0.4
2017-Sep-29 20:58N 44°18' E 022°37'0 0.4
2017-Sep-29 20:30N 44°18' E 022°36'0 0.0
2017-Sep-29 20:00N 44°18' E 022°36'0 0.0
2017-Sep-29 19:30N 44°18' E 022°36'0 0.2
2017-Sep-29 18:58N 44°18' E 022°37'1 2.1
2017-Sep-29 18:30N 44°17' E 022°38'0 0.9
2017-Sep-29 18:00N 44°17' E 022°39'1 2.9
2017-Sep-29 17:30N 44°18' E 022°36'0 0.0
2017-Sep-29 17:00N 44°18' E 022°36'0 0.0
2017-Sep-29 16:30N 44°18' E 022°36'0 0.0
2017-Sep-29 15:59N 44°18' E 022°36'0 0.0
2017-Sep-29 15:29N 44°18' E 022°36'0 0.0
2017-Sep-29 14:59N 44°18' E 022°36'0 0.0
2017-Sep-29 14:29N 44°18' E 022°36'0 0.0
2017-Sep-29 13:56N 44°18' E 022°36'0 0.0
2017-Sep-29 13:29N 44°18' E 022°36'0 0.1
2017-Sep-29 13:00N 44°18' E 022°36'0 0.1
2017-Sep-29 12:29N 44°18' E 022°36'  

Dump ship's entire track history